Time;durP1;ratioP1;P1;durP2;ratioP2;P2;SDS_P1;SDS_P2;PMS_P1;PMS_P2;Temp;Humidity;BMP_temperature;BMP_pressure;BME280_temperature;BME280_humidity;BME280_pressure;Samples;Min_cycle;Max_cycle;Signal;HPM_P1;HPM_P2
2024/02/07 00:00:12;;;;;;;5.40;1.50;;;;;;;9.15;76.27;97925.81;273366;1267;22243;-91
2024/02/07 00:06:48;;;;;;;9.90;2.20;;;;;;;9.18;75.92;97914.19;273359;1267;22408;-92
2024/02/07 00:12:54;;;;;;;5.40;1.40;;;;;;;9.24;75.02;97900.05;273215;1267;22245;-91
2024/02/07 00:19:03;;;;;;;3.10;1.40;;;;;;;9.29;75.19;97904.28;273388;1267;22251;-92
2024/02/07 00:25:09;;;;;;;6.20;1.70;;;;;;;9.27;75.55;97904.98;273442;1267;22391;-91
2024/02/07 00:31:15;;;;;;;3.20;1.10;;;;;;;9.32;74.86;97887.23;273406;1266;22394;-92
2024/02/07 00:37:20;;;;;;;6.50;1.70;;;;;;;9.35;74.70;97890.36;273226;1264;22134;-92
2024/02/07 00:43:32;;;;;;;5.70;2.10;;;;;;;9.38;74.49;97878.58;273416;1266;22248;-92
2024/02/07 00:49:43;;;;;;;4.30;1.60;;;;;;;9.40;74.22;97880.69;273343;1267;22447;-92
2024/02/07 00:55:58;;;;;;;5.00;1.70;;;;;;;9.39;74.32;97875.92;273308;1266;23258;-91
2024/02/07 01:02:14;;;;;;;9.80;1.70;;;;;;;9.38;74.16;97860.32;273321;1266;22416;-93
2024/02/07 01:08:33;;;;;;;6.40;1.60;;;;;;;9.39;74.17;97855.24;273388;1267;23187;-93
2024/02/07 01:14:43;;;;;;;5.80;1.60;;;;;;;9.37;74.35;97844.09;273367;1266;23125;-93
2024/02/07 01:20:47;;;;;;;5.10;1.30;;;;;;;9.39;73.76;97834.02;273382;1256;22440;-92
2024/02/07 01:27:00;;;;;;;7.30;1.90;;;;;;;9.40;74.13;97836.29;273360;1267;23521;-92
2024/02/07 01:33:09;;;;;;;6.50;1.80;;;;;;;9.37;74.23;97836.05;273331;1265;22479;-92
2024/02/07 01:39:18;;;;;;;6.10;1.60;;;;;;;9.35;74.29;97821.08;273303;1266;22355;-91
2024/02/07 01:45:22;;;;;;;6.00;1.50;;;;;;;9.33;74.42;97813.52;273320;1267;22244;-91
2024/02/07 01:51:36;;;;;;;5.80;1.40;;;;;;;9.32;74.15;97808.98;273406;1266;22304;-92
2024/02/07 01:57:41;;;;;;;2.50;1.30;;;;;;;9.30;74.62;97799.64;273349;1262;22425;-91
2024/02/07 02:03:48;;;;;;;4.10;1.70;;;;;;;9.22;74.62;97785.92;273347;1266;22437;-92
2024/02/07 02:09:51;;;;;;;7.80;1.90;;;;;;;9.27;74.02;97788.95;273412;1266;22836;-91
2024/02/07 02:15:56;;;;;;;3.70;1.40;;;;;;;9.27;74.23;97787.86;273298;1266;22383;-92
2024/02/07 02:22:46;;;;;;;4.10;1.40;;;;;;;9.23;74.44;97781.00;273358;1267;22417;-93
2024/02/07 02:29:20;;;;;;;2.40;1.00;;;;;;;9.20;74.80;97777.12;273486;1265;22474;-92
2024/02/07 02:38:12;;;;;;;9.10;1.60;;;;;;;9.21;74.79;97765.34;268107;1288;545246;-93
2024/02/07 02:44:55;;;;;;;4.80;1.80;;;;;;;9.16;74.63;97738.13;271645;1272;22575;-91
2024/02/07 02:51:00;;;;;;;3.50;1.70;;;;;;;9.12;74.52;97736.42;271042;1260;161298;-91
2024/02/07 02:57:05;;;;;;;5.50;1.80;;;;;;;9.08;74.65;97731.67;270733;1270;23368;-92
2024/02/07 03:03:16;;;;;;;4.20;1.80;;;;;;;9.06;74.69;97737.36;270358;1269;22969;-91
2024/02/07 03:09:30;;;;;;;7.60;2.20;;;;;;;9.05;74.38;97737.46;269824;1269;22680;-94
2024/02/07 03:15:45;;;;;;;4.50;1.60;;;;;;;9.06;74.49;97726.23;269800;1269;23723;-92
2024/02/07 03:21:49;;;;;;;6.90;1.30;;;;;;;9.04;74.29;97711.48;269380;1269;22733;-93
2024/02/07 03:27:52;;;;;;;5.10;1.60;;;;;;;9.01;74.30;97702.39;269606;1269;22518;-93
2024/02/07 03:33:54;;;;;;;4.70;1.40;;;;;;;8.97;74.33;97704.50;270145;1269;22550;-91
2024/02/07 03:40:13;;;;;;;6.20;1.40;;;;;;;8.96;73.96;97697.16;270719;1267;22990;-92
2024/02/07 03:46:16;;;;;;;4.80;1.20;;;;;;;8.98;73.90;97688.13;270747;1267;22209;-90
2024/02/07 03:52:22;;;;;;;4.60;1.30;;;;;;;8.99;73.45;97676.42;270705;1268;22404;-94
2024/02/07 03:58:45;;;;;;;3.70;1.10;;;;;;;9.06;72.89;97670.38;270329;1268;22790;-93
2024/02/07 04:04:49;;;;;;;3.80;1.30;;;;;;;9.07;73.28;97666.02;270582;1267;22597;-93
2024/02/07 04:11:07;;;;;;;;;;;;;;;;;;;;;
2024/02/07 05:15:45;;;;;;;3.80;1.20;;;;;;;8.89;75.07;97625.45;270298;1268;22848;-89
2024/02/07 05:21:47;;;;;;;3.70;1.70;;;;;;;8.90;75.25;97622.66;270493;1268;22633;-90
2024/02/07 05:27:56;;;;;;;4.50;1.20;;;;;;;8.91;74.99;97610.00;270883;1268;22476;-92
2024/02/07 05:34:41;;;;;;;6.80;1.60;;;;;;;8.92;74.92;97598.30;270107;1268;23223;-92
2024/02/07 05:40:46;;;;;;;5.60;1.70;;;;;;;8.91;75.17;97595.44;271000;1253;23153;-93
2024/02/07 05:47:15;;;;;;;5.00;1.60;;;;;;;8.94;74.99;97590.98;270703;1268;22877;-91
2024/02/07 05:53:23;;;;;;;5.90;2.00;;;;;;;8.95;74.84;97578.17;271063;1268;23396;-93
2024/02/07 05:59:33;;;;;;;6.70;2.30;;;;;;;8.96;74.65;97577.15;271965;1261;22580;-96
2024/02/07 06:05:48;;;;;;;5.70;2.10;;;;;;;8.96;74.88;97577.78;272058;1268;22415;-93
2024/02/07 06:12:10;;;;;;;5.10;1.50;;;;;;;8.96;74.83;97577.79;269994;1268;22576;-91
2024/02/07 06:18:19;;;;;;;7.80;2.40;;;;;;;8.97;74.55;97578.86;269883;1258;23498;-92
2024/02/07 06:24:36;;;;;;;5.60;1.60;;;;;;;8.99;74.02;97584.00;270155;1268;25310;-90
2024/02/07 06:30:47;;;;;;;3.90;1.40;;;;;;;9.00;74.32;97574.41;270063;1268;25397;-91
2024/02/07 06:36:50;;;;;;;4.30;1.60;;;;;;;8.99;74.27;97580.81;269564;1269;23439;-92
2024/02/07 06:43:04;;;;;;;5.50;1.60;;;;;;;9.01;74.42;97571.60;271197;1268;22550;-93
2024/02/07 06:49:26;;;;;;;8.90;2.20;;;;;;;9.08;74.15;97564.61;269817;1268;24221;-92
2024/02/07 06:55:29;;;;;;;5.70;2.30;;;;;;;9.13;74.08;97564.05;270591;1268;22546;-92
2024/02/07 07:01:31;;;;;;;4.70;1.50;;;;;;;9.14;74.31;97567.39;270293;1268;22568;-91
2024/02/07 07:07:33;;;;;;;3.10;1.40;;;;;;;9.13;74.46;97562.86;270963;1268;23917;-91
2024/02/07 07:13:36;;;;;;;5.60;2.10;;;;;;;9.08;74.54;97556.19;271107;1268;22844;-90
2024/02/07 07:19:40;;;;;;;5.30;2.50;;;;;;;8.98;74.86;97544.08;270345;1267;22569;-91
2024/02/07 07:25:45;;;;;;;3.50;1.70;;;;;;;8.91;75.15;97548.48;272743;1268;23325;-91
2024/02/07 07:31:53;;;;;;;6.10;1.80;;;;;;;8.88;75.20;97552.89;272328;1268;23214;-90
2024/02/07 07:37:56;;;;;;;7.20;1.80;;;;;;;8.85;75.28;97557.64;271663;1268;22588;-91
2024/02/07 07:44:01;;;;;;;6.20;2.40;;;;;;;8.85;75.44;97554.98;270977;1268;23724;-90
2024/02/07 07:50:07;;;;;;;5.80;2.30;;;;;;;8.86;75.62;97560.45;271000;1268;22465;-91
2024/02/07 07:56:13;;;;;;;4.20;1.50;;;;;;;8.87;75.68;97560.60;270411;1268;22641;-91
2024/02/07 08:02:16;;;;;;;6.50;1.80;;;;;;;8.92;75.12;97556.05;270327;1268;22204;-92
2024/02/07 08:08:18;;;;;;;7.30;2.40;;;;;;;8.96;75.23;97554.54;270123;1268;23430;-92
2024/02/07 08:14:21;;;;;;;4.30;1.70;;;;;;;8.94;75.68;97551.83;270466;1268;24178;-90
2024/02/07 08:20:24;;;;;;;8.10;2.20;;;;;;;8.90;75.74;97552.55;271455;1258;23157;-91
2024/02/07 08:26:28;;;;;;;4.40;1.90;;;;;;;8.86;76.15;97551.71;270350;1268;22678;-92
2024/02/07 08:32:32;;;;;;;5.80;2.50;;;;;;;8.85;76.19;97542.90;271770;1268;23882;-92
2024/02/07 08:38:41;;;;;;;4.10;2.20;;;;;;;8.99;75.94;97535.73;272532;1267;22571;-93
2024/02/07 08:44:43;;;;;;;6.10;1.40;;;;;;;9.15;75.68;97532.20;271438;1269;22551;-90
2024/02/07 08:50:45;;;;;;;7.20;1.90;;;;;;;9.26;75.64;97529.09;270973;1268;24195;-90
2024/02/07 08:56:47;;;;;;;4.70;1.40;;;;;;;9.32;75.38;97521.63;271244;1268;23836;-90
2024/02/07 09:02:51;;;;;;;5.50;2.00;;;;;;;9.36;75.12;97516.44;270696;1268;25364;-90
2024/02/07 09:08:56;;;;;;;7.40;2.20;;;;;;;9.33;75.89;97512.80;269745;1268;23281;-92
2024/02/07 09:15:00;;;;;;;5.00;1.80;;;;;;;9.21;76.49;97516.73;271251;1268;22816;-91
2024/02/07 09:21:07;;;;;;;4.80;2.10;;;;;;;9.07;77.32;97511.58;270093;1269;22307;-93
2024/02/07 09:27:11;;;;;;;4.80;2.00;;;;;;;9.00;77.56;97507.19;269895;1268;22349;-89
2024/02/07 09:33:21;;;;;;;5.10;2.00;;;;;;;8.99;78.03;97509.45;270921;1268;22476;-92
2024/02/07 09:39:24;;;;;;;5.70;2.40;;;;;;;9.01;78.06;97502.96;270064;1268;24015;-92
2024/02/07 09:45:32;;;;;;;5.20;2.40;;;;;;;8.98;78.63;97508.67;270863;1268;23250;-92
2024/02/07 09:51:34;;;;;;;7.30;2.50;;;;;;;8.86;79.35;97507.89;270060;1269;22594;-94
2024/02/07 09:57:47;;;;;;;6.00;2.20;;;;;;;8.77;80.47;97507.40;270429;1268;25390;-94
2024/02/07 10:03:51;;;;;;;8.40;2.60;;;;;;;8.59;82.68;97506.41;271492;1268;24627;-93
2024/02/07 10:09:57;;;;;;;6.90;2.90;;;;;;;8.33;85.67;97511.89;271345;1260;24038;-92
2024/02/07 10:16:06;;;;;;;9.80;3.40;;;;;;;8.07;88.98;97507.59;272350;1268;22647;-92
2024/02/07 10:22:20;;;;;;;14.50;5.10;;;;;;;7.88;90.87;97501.80;271634;1268;22585;-90
2024/02/07 10:28:26;;;;;;;8.30;3.70;;;;;;;7.83;92.22;97499.46;270479;1268;22579;-91
2024/02/07 10:34:31;;;;;;;9.70;3.20;;;;;;;7.93;92.20;97492.59;272039;1268;23332;-90
2024/02/07 10:40:36;;;;;;;6.80;3.00;;;;;;;8.00;93.00;97483.94;271135;1268;23318;-91
2024/02/07 10:46:39;;;;;;;8.40;3.00;;;;;;;8.01;93.11;97481.67;271484;1268;22307;-91
2024/02/07 10:52:41;;;;;;;7.80;3.10;;;;;;;8.03;93.12;97477.93;271384;1268;23682;-90
2024/02/07 10:58:53;;;;;;;5.40;2.50;;;;;;;8.06;93.11;97474.80;271174;1267;22550;-94
2024/02/07 11:05:04;;;;;;;4.70;2.50;;;;;;;8.08;93.28;97471.45;270351;1253;22626;-96
2024/02/07 11:11:20;;;;;;;10.70;2.60;;;;;;;8.09;93.23;97465.77;271971;1267;22542;-93
2024/02/07 11:17:25;;;;;;;6.70;2.90;;;;;;;8.08;93.69;97466.94;270930;1267;23696;-91
2024/02/07 11:23:36;;;;;;;6.10;2.30;;;;;;;7.96;94.51;97458.02;270354;1267;22656;-91
2024/02/07 11:29:44;;;;;;;4.80;2.60;;;;;;;7.90;95.45;97447.77;271229;1267;22628;-93
2024/02/07 11:35:51;;;;;;;6.30;2.30;;;;;;;7.95;95.76;97444.86;270210;1267;24422;-90
2024/02/07 11:42:02;;;;;;;4.10;2.00;;;;;;;8.07;95.66;97432.68;271371;1269;23163;-91
2024/02/07 11:48:24;;;;;;;10.20;3.10;;;;;;;8.20;95.38;97428.20;272617;1269;22712;-92
2024/02/07 11:54:33;;;;;;;9.00;3.10;;;;;;;8.33;95.16;97429.01;270639;1267;22599;-89
2024/02/07 12:00:45;;;;;;;8.00;2.50;;;;;;;8.39;95.11;97423.30;270906;1267;24984;-90
2024/02/07 12:06:52;;;;;;;10.10;3.10;;;;;;;8.44;95.03;97419.99;269980;1269;22547;-90
2024/02/07 12:12:54;;;;;;;6.30;2.90;;;;;;;8.49;94.94;97420.98;270972;1268;22547;-89
2024/02/07 12:18:57;;;;;;;7.10;2.50;;;;;;;8.50;94.83;97418.40;272447;1268;23011;-90
2024/02/07 12:25:00;;;;;;;7.90;3.00;;;;;;;8.49;94.88;97411.95;271323;1267;22605;-89
2024/02/07 12:31:03;;;;;;;6.80;2.10;;;;;;;8.51;94.49;97413.33;271089;1269;22239;-89
2024/02/07 12:37:06;;;;;;;4.20;1.60;;;;;;;8.71;93.58;97396.91;271749;1268;22437;-92
2024/02/07 12:43:08;;;;;;;4.10;1.40;;;;;;;8.97;91.31;97393.58;270732;1268;22555;-91
2024/02/07 12:49:15;;;;;;;6.80;1.90;;;;;;;9.30;89.53;97402.50;271926;1267;22222;-92
2024/02/07 12:55:17;;;;;;;6.10;2.00;;;;;;;9.44;89.26;97395.34;270034;1269;22559;-91
2024/02/07 13:01:25;;;;;;;4.30;1.90;;;;;;;9.54;88.07;97398.70;270253;1268;22706;-92
2024/02/07 13:07:33;;;;;;;3.60;1.40;;;;;;;9.61;87.28;97395.95;270826;1268;22579;-92
2024/02/07 13:13:51;;;;;;;5.70;2.60;;;;;;;9.68;87.16;97396.03;271777;1268;22424;-92
2024/02/07 13:20:03;;;;;;;4.20;1.50;;;;;;;9.76;86.42;97390.79;271190;1268;22496;-92
2024/02/07 13:26:08;;;;;;;6.20;1.60;;;;;;;9.79;86.51;97387.66;272101;1261;22392;-94
2024/02/07 13:32:21;;;;;;;4.70;1.80;;;;;;;9.85;85.06;97378.98;271726;1268;22560;-93
2024/02/07 13:38:31;;;;;;;3.20;1.70;;;;;;;9.94;84.26;97374.26;271080;1267;22538;-92
2024/02/07 13:44:34;;;;;;;5.40;2.00;;;;;;;10.03;84.44;97383.30;270988;1261;22218;-91
2024/02/07 13:50:37;;;;;;;6.50;2.10;;;;;;;10.06;84.07;97382.79;270542;1268;22546;-91
2024/02/07 13:56:48;;;;;;;6.00;1.70;;;;;;;10.01;83.76;97388.23;270346;1267;22597;-93
2024/02/07 14:03:23;;;;;;;4.10;1.70;;;;;;;10.02;83.28;97390.80;270441;1268;22585;-93
2024/02/07 14:09:57;;;;;;;5.10;1.70;;;;;;;10.07;82.90;97398.65;270599;1268;22576;-94
2024/02/07 14:16:00;;;;;;;5.20;1.60;;;;;;;10.08;82.59;97396.45;271882;1268;22922;-92
2024/02/07 14:22:02;;;;;;;7.30;2.20;;;;;;;10.05;82.14;97403.11;270657;1268;24248;-93
2024/02/07 14:28:09;;;;;;;4.30;1.60;;;;;;;10.04;82.21;97407.25;271346;1267;25158;-92
2024/02/07 14:34:12;;;;;;;8.20;2.00;;;;;;;10.03;82.04;97415.78;270623;1267;22446;-92
2024/02/07 14:40:19;;;;;;;7.10;2.10;;;;;;;10.02;82.11;97419.08;271353;1268;23374;-92
2024/02/07 14:46:29;;;;;;;4.30;1.70;;;;;;;10.02;81.98;97416.42;268321;1268;6604082;-89
2024/02/07 14:52:35;;;;;;;5.00;2.00;;;;;;;10.04;81.71;97423.19;271733;1268;22549;-90
2024/02/07 14:58:40;;;;;;;5.40;2.40;;;;;;;9.96;81.88;97462.73;270894;1268;22535;-90
2024/02/07 15:04:47;;;;;;;5.00;2.70;;;;;;;9.20;83.74;97497.34;270212;1267;22561;-91
2024/02/07 15:10:52;;;;;;;5.20;3.00;;;;;;;8.16;86.59;97507.94;271913;1268;22470;-90
2024/02/07 15:16:57;;;;;;;5.00;2.70;;;;;;;7.63;87.93;97524.46;272177;1267;22571;-91
2024/02/07 15:22:59;;;;;;;4.70;1.90;;;;;;;7.20;89.18;97538.46;271437;1268;22469;-90
2024/02/07 15:29:03;;;;;;;3.40;2.00;;;;;;;6.89;90.12;97560.34;272829;1268;22396;-90
2024/02/07 15:35:11;;;;;;;6.30;2.80;;;;;;;6.72;90.91;97577.92;270279;1268;25300;-91
2024/02/07 15:41:21;;;;;;;6.10;3.10;;;;;;;6.52;90.96;97588.41;270198;1259;23030;-92
2024/02/07 15:47:25;;;;;;;7.80;2.30;;;;;;;6.25;91.04;97588.65;270091;1267;22556;-90
2024/02/07 15:53:32;;;;;;;7.10;2.50;;;;;;;6.01;91.46;97602.56;270926;1267;22979;-90
2024/02/07 15:59:37;;;;;;;5.90;2.90;;;;;;;5.79;91.93;97616.03;271497;1267;24198;-92
2024/02/07 16:05:40;;;;;;;6.80;3.30;;;;;;;5.64;92.41;97633.05;270085;1267;22742;-90
2024/02/07 16:11:43;;;;;;;10.10;4.30;;;;;;;5.53;93.24;97650.25;271385;1267;22606;-90
2024/02/07 16:17:47;;;;;;;6.70;3.70;;;;;;;5.48;94.13;97660.34;271423;1267;25323;-93
2024/02/07 16:23:57;;;;;;;7.40;2.70;;;;;;;5.41;94.93;97672.23;270654;1267;25542;-90
2024/02/07 16:30:02;;;;;;;4.20;2.50;;;;;;;5.28;95.73;97684.18;270225;1268;24397;-92
2024/02/07 16:36:12;;;;;;;6.20;2.90;;;;;;;5.13;96.61;97699.27;270619;1268;22572;-90
2024/02/07 16:42:15;;;;;;;5.30;2.90;;;;;;;4.98;97.15;97703.13;270532;1268;23543;-89
2024/02/07 16:48:19;;;;;;;4.50;2.90;;;;;;;4.89;97.71;97715.58;271423;1267;22598;-89
2024/02/07 16:54:22;;;;;;;5.70;3.00;;;;;;;4.70;97.98;97731.19;272607;1268;22494;-90
2024/02/07 17:00:24;;;;;;;5.40;3.00;;;;;;;4.54;99.30;97745.85;272922;1268;22476;-87
2024/02/07 17:06:51;;;;;;;5.40;3.10;;;;;;;4.46;99.45;97751.91;272184;1268;23226;-92
2024/02/07 17:13:01;;;;;;;6.20;2.90;;;;;;;4.34;99.65;97764.65;265391;1268;10001457;-92
2024/02/07 17:19:10;;;;;;;5.20;3.00;;;;;;;4.16;99.91;97776.27;272960;1268;23933;-90
2024/02/07 17:25:18;;;;;;;6.90;3.20;;;;;;;4.04;100.00;97786.20;271038;1268;23425;-91
2024/02/07 17:31:29;;;;;;;5.70;3.30;;;;;;;3.95;100.00;97784.81;270949;1267;23752;-91
2024/02/07 17:37:31;;;;;;;7.60;3.90;;;;;;;3.85;100.00;97793.31;271983;1267;23198;-93
2024/02/07 17:43:34;;;;;;;10.20;5.30;;;;;;;3.78;100.00;97795.65;272945;1267;22301;-92
2024/02/07 17:49:36;;;;;;;9.90;6.20;;;;;;;3.68;100.00;97795.61;273008;1255;22427;-92
2024/02/07 17:55:41;;;;;;;10.30;5.00;;;;;;;3.60;100.00;97797.95;272884;1268;22406;-91
2024/02/07 18:01:45;;;;;;;8.80;6.00;;;;;;;3.52;100.00;97808.45;270484;1268;22693;-93
2024/02/07 18:07:48;;;;;;;10.20;5.60;;;;;;;3.42;100.00;97809.25;271552;1268;22368;-89
2024/02/07 18:13:50;;;;;;;7.30;4.50;;;;;;;3.29;100.00;97824.30;272854;1258;22783;-91
2024/02/07 19:54:54;;;;;;;10.90;5.30;;;;;;;2.16;100.00;97846.54;253513;1298;10001633;-82
2024/02/07 20:00:56;;;;;;;11.00;4.50;;;;;;;2.19;100.00;97847.39;269456;1281;22609;-84
2024/02/07 20:07:18;;;;;;;7.60;4.30;;;;;;;2.18;100.00;97857.29;270873;1286;22245;-83
2024/02/07 20:13:21;;;;;;;6.90;4.30;;;;;;;2.16;100.00;97863.50;269408;1282;22696;-82
2024/02/07 20:19:33;;;;;;;6.40;3.90;;;;;;;2.12;100.00;97862.79;271091;1281;22371;-85
2024/02/07 20:25:36;;;;;;;7.70;3.50;;;;;;;2.05;100.00;97857.20;271022;1282;24025;-84
2024/02/07 20:32:20;;;;;;;8.20;4.10;;;;;;;2.04;100.00;97867.75;271413;1282;22536;-85
2024/02/07 20:38:23;;;;;;;10.00;5.90;;;;;;;2.04;100.00;97870.42;271176;1283;22254;-86
2024/02/07 20:44:31;;;;;;;6.60;4.00;;;;;;;2.02;100.00;97867.14;271181;1282;23841;-86
2024/02/07 20:50:36;;;;;;;7.90;5.10;;;;;;;2.00;100.00;97859.37;271378;1282;22402;-85
2024/02/07 20:56:41;;;;;;;7.70;4.70;;;;;;;1.98;100.00;97863.58;271322;1282;23346;-87
2024/02/07 21:03:07;;;;;;;8.50;4.90;;;;;;;1.97;100.00;97864.71;271322;1269;23048;-86
2024/02/07 21:09:09;;;;;;;10.30;4.90;;;;;;;1.97;100.00;97870.47;272168;1277;23611;-85
2024/02/07 21:15:11;;;;;;;11.30;5.00;;;;;;;1.94;100.00;97872.77;272096;1273;22414;-87
2024/02/07 21:21:28;;;;;;;12.60;5.30;;;;;;;1.92;100.00;97881.23;272227;1273;22425;-87
2024/02/07 21:27:50;;;;;;;10.10;5.50;;;;;;;1.87;100.00;97890.26;272444;1272;22785;-86
2024/02/07 21:34:27;;;;;;;9.50;5.60;;;;;;;1.88;100.00;97901.38;272477;1272;22402;-85
2024/02/07 21:40:57;;;;;;;10.20;5.90;;;;;;;1.88;100.00;97904.31;272662;1269;23293;-86
2024/02/07 21:46:59;;;;;;;11.30;6.20;;;;;;;1.77;100.00;97905.23;272545;1273;22776;-85
2024/02/07 21:53:27;;;;;;;11.90;6.20;;;;;;;1.72;100.00;97912.75;272767;1273;23276;-86
2024/02/07 21:59:29;;;;;;;14.60;9.00;;;;;;;1.76;100.00;97911.31;271173;1261;22607;-84
2024/02/07 22:05:30;;;;;;;14.40;8.80;;;;;;;1.83;100.00;97911.66;269976;1272;22634;-85
2024/02/07 22:11:36;;;;;;;13.00;7.20;;;;;;;1.90;100.00;97915.87;269100;1272;22538;-85
2024/02/07 22:18:05;;;;;;;9.30;5.70;;;;;;;1.91;100.00;97918.98;268759;1272;22712;-85
2024/02/07 22:24:16;;;;;;;12.40;5.90;;;;;;;1.87;100.00;97923.64;271446;1272;22462;-86
2024/02/07 22:30:20;;;;;;;13.90;6.30;;;;;;;1.82;100.00;97927.35;272584;1272;23502;-87
2024/02/07 22:36:22;;;;;;;11.70;6.70;;;;;;;1.76;100.00;97935.90;272646;1272;22422;-86
2024/02/07 22:42:24;;;;;;;14.40;8.30;;;;;;;1.65;100.00;97947.16;272718;1272;22362;-87
2024/02/07 22:48:26;;;;;;;14.10;8.30;;;;;;;1.49;100.00;97946.23;272718;1272;23496;-86
2024/02/07 22:54:28;;;;;;;15.30;7.90;;;;;;;1.45;100.00;97945.70;272623;1272;22267;-86
2024/02/07 23:00:55;;;;;;;16.30;9.40;;;;;;;1.47;100.00;97954.94;270690;1272;22561;-86
2024/02/07 23:07:01;;;;;;;;;;;;;;;1.47;100.00;97955.02;271760;1272;22494;-86
2024/02/07 23:13:03;;;;;;;16.90;9.00;;;;;;;1.42;100.00;97952.73;272668;1273;22400;-86
2024/02/07 23:19:05;;;;;;;19.20;11.40;;;;;;;1.40;100.00;97946.86;272733;1272;22986;-85
2024/02/07 23:25:09;;;;;;;25.70;12.00;;;;;;;1.41;100.00;97946.59;272139;1272;25234;-86
2024/02/07 23:31:33;;;;;;;21.80;12.10;;;;;;;1.43;100.00;97950.20;270464;1272;22590;-87
2024/02/07 23:37:37;;;;;;;20.40;11.30;;;;;;;1.47;100.00;97949.55;270161;1272;22384;-88
2024/02/07 23:44:00;;;;;;;15.60;9.40;;;;;;;1.51;100.00;97960.75;272143;1272;22240;-86
2024/02/07 23:50:03;;;;;;;17.40;10.50;;;;;;;1.51;100.00;97968.01;272800;1272;22399;-86
2024/02/07 23:56:06;;;;;;;18.70;11.30;;;;;;;1.52;100.00;97965.86;272486;1272;22198;-86
